Currently 40°F in French Valley, California, USA
40°F
43°F / 37°F
calm
0.00"
Thursday, February 2, 2023 7:40 AM PST

French Valley, California Weather Summary
Last 36 Hours

Temperature Winds Hourly Humidity Dewpoint
Time Report Norm Report Norm Max Gusts Precip. Rpt. Norm Rpt. Norm Pressure
1Thu 07:40 AM  40.4°F  47°F  calm  1 mph  none  0.00"  86%  81%  36°F  41°F  30.44"
Thu 07:00 AM  39.5°F  45°F  calm  1 mph  none  0.00"  87%  82%  36°F  40°F  30.42"
3Thu 06:06 AM  37.1°F  45°F  calm  1 mph  none  ----  86%  82%  33°F  40°F  30.40"
Thu 06:00 AM  37.4°F  45°F  calm  1 mph  none  0.00"  85%  82%  33°F  40°F  30.40"
Thu 05:00 AM  38.4°F  46°F  calm  1 mph  none  0.00"  83%  82%  34°F  40°F  30.38"
Thu 04:00 AM  38.9°F  46°F  calm  1 mph  none  0.00"  81%  81%  33°F  41°F  30.36"
Thu 03:00 AM  40.2°F  47°F  calm  1 mph  none  0.00"  80%  81%  34°F  41°F  30.36"
Thu 02:00 AM  40.6°F  48°F  calm  1 mph  none  0.00"  83%  80%  36°F  42°F  30.35"
Thu 01:00 AM  41.2°F  48°F  calm  1 mph  none  0.00"  81%  80%  36°F  42°F  30.34"
2Thu 12:05 AM  42.5°F  49°F  calm  1 mph  none  ----  81%  79%  37°F  43°F  30.33"
Thu 12:00 AM  42.5°F  49°F  calm  1 mph  none  0.00"  82%  79%  37°F  43°F  30.33"
Wed 11:00 PM  42.8°F  50°F  calm  1 mph  none  0.00"  78%  78%  36°F  43°F  30.32"
Wed 10:00 PM  45.5°F  51°F  calm  1 mph  none  0.00"  79%  77%  39°F  43°F  30.29"
Wed 09:00 PM  45.3°F  52°F  calm  1 mph  none  0.00"  74%  75%  37°F  44°F  30.29"
Wed 08:00 PM  47.5°F  54°F  calm  2 mph  none  0.00"  79%  73%  41°F  45°F  30.27"
Wed 07:00 PM  50.8°F  55°F  calm  2 mph  none  0.00"  66%  69%  40°F  45°F  30.25"
Wed 06:00 PM  56.4°F  58°F  calm  2 mph  none  0.00"  50%  62%  37°F  45°F  30.22"
Wed 05:00 PM  62.4°F  63°F  calm  3 mph  none  0.00"  32%  53%  31°F  45°F  30.21"
Wed 04:00 PM  64.1°F  65°F  calm  4 mph  none  0.00"  31%  47%  31°F  44°F  30.19"
Wed 03:00 PM  63.8°F  66°F  calm  4 mph  none  0.00"  28%  44%  29°F  43°F  30.18"
Wed 02:00 PM  63.1°F  66°F  calm  4 mph  none  0.00"  30%  43%  30°F  42°F  30.18"
Wed 01:00 PM  61.8°F  65°F  calm  3 mph  none  0.00"  41%  45%  37°F  43°F  30.19"
Wed 12:00 PM  58.9°F  64°F  calm  3 mph  none  0.00"  42%  48%  35°F  43°F  30.22"
Wed 11:00 AM  56.6°F  61°F  calm  2 mph  none  0.00"  43%  55%  33°F  44°F  30.25"
Wed 10:00 AM  53.6°F  57°F  calm  2 mph  none  0.00"  46%  63%  33°F  44°F  30.27"
Wed 09:00 AM  47.7°F  52°F  calm  2 mph  none  0.00"  69%  73%  38°F  43°F  30.26"
Wed 08:00 AM  40.3°F  48°F  calm  1 mph  none  0.00"  82%  80%  35°F  42°F  30.25"
Wed 07:00 AM  37.3°F  45°F  calm  1 mph  none  0.00"  84%  82%  33°F  40°F  30.23"
Wed 06:00 AM  37.0°F  45°F  calm  1 mph  none  0.00"  83%  82%  32°F  40°F  30.22"
Wed 05:00 AM  37.2°F  46°F  calm  1 mph  none  0.00"  80%  82%  31°F  40°F  30.21"
Wed 04:00 AM  39.3°F  46°F  calm  1 mph  none  0.00"  81%  81%  34°F  41°F  30.19"
Wed 03:00 AM  39.9°F  47°F  calm  1 mph  none  0.00"  72%  81%  31°F  41°F  30.20"
Wed 02:00 AM  39.9°F  47°F  calm  1 mph  none  0.00"  77%  80%  33°F  41°F  30.20"
Wed 01:00 AM  38.4°F  48°F  calm  1 mph  none  0.00"  81%  79%  33°F  42°F  30.19"
Wed 12:00 AM  41.0°F  49°F  calm  1 mph  none  0.00"  75%  78%  33°F  42°F  30.20"
Tue 11:00 PM  41.3°F  50°F  calm  1 mph  none  0.00"  78%  78%  35°F  43°F  30.20"
Tue 10:00 PM  41.0°F  51°F  calm  1 mph  none  0.00"  79%  76%  35°F  43°F  30.19"
Tue 09:00 PM  44.6°F  52°F  calm  1 mph  none  0.00"  71%  75%  35°F  44°F  30.17"
Tue 08:00 PM  46.7°F  54°F  calm  2 mph  none  0.00"  69%  72%  37°F  45°F  30.16"

  1. Current weather data. No green row appears if the current weather data is also the high or low for the current day.
  2. High temperature for the current day.
  3. Low temperature for the current day.

The French Valley, California weather pages are a service of WeatherCurrents. French Valley is located in southwestern Riverside County, California, north of Temecula, east of Murrieta, and south of Winchester. French Valley is bordered by Lake Skinner.
Copyright ©2023  WeatherCurrents. All rights reserved. - Submit questions and comments - Privacy Policy

This page automatically refreshes every 10 minutes.